Trumansburg, New York
Current Conditions -  °F | °C
As of 10:56 PM on Tuesday 25 Nov 2014 (Local Time) from KITH Reporting Station
Overcast Overcast  
Wind Chill: 29°   Ceiling: 4500
Heat Index: 36°   Visibility: 10mi
Dew Point: 31°   Wind: 9mph
Humidity: 82%   Direction: 350°N
Pressure: 30.17"   Gusts: NA
Location:  42.54°N, 76.67°W
Report Text: KITH 260356Z AUTO 35008KT 10SM OVC045 02/M01 A3017 RMK AO2 T00221005 SLP225
Loading
Personal Weather Stations






























Interactive Weather Map New forecast layout! Learn more

10-Day Weather Forecast

Advertisements
Track Severe Weather on mobile